sensor_id;sensor_type;location;lat;lon;timestamp;pressure;altitude;pressure_sealevel;temperature;humidity
84122;BME280;74217;51.106;17.084;2024-01-15T00:02:08;98390.66;;;1.30;74.08
84122;BME280;74217;51.106;17.084;2024-01-15T00:04:55;98400.69;;;1.39;74.08
84122;BME280;74217;51.106;17.084;2024-01-15T00:07:43;98391.06;;;1.42;73.35
84122;BME280;74217;51.106;17.084;2024-01-15T00:10:30;98384.41;;;1.35;72.73
84122;BME280;74217;51.106;17.084;2024-01-15T00:13:17;98366.00;;;1.20;72.37
84122;BME280;74217;51.106;17.084;2024-01-15T00:16:04;98359.34;;;1.36;71.49
84122;BME280;74217;51.106;17.084;2024-01-15T00:18:51;98365.19;;;1.41;71.11
84122;BME280;74217;51.106;17.084;2024-01-15T00:21:39;98341.16;;;1.37;70.61
84122;BME280;74217;51.106;17.084;2024-01-15T00:24:26;98356.38;;;1.46;70.52
84122;BME280;74217;51.106;17.084;2024-01-15T00:27:15;98349.47;;;1.45;70.06
84122;BME280;74217;51.106;17.084;2024-01-15T00:30:02;98347.69;;;1.47;71.15
84122;BME280;74217;51.106;17.084;2024-01-15T00:32:50;98339.50;;;1.58;69.75
84122;BME280;74217;51.106;17.084;2024-01-15T00:35:36;98310.81;;;1.41;70.61
84122;BME280;74217;51.106;17.084;2024-01-15T00:38:24;98316.13;;;1.38;69.83
84122;BME280;74217;51.106;17.084;2024-01-15T00:41:11;98307.53;;;1.36;69.47
84122;BME280;74217;51.106;17.084;2024-01-15T00:44:00;98308.03;;;1.45;69.61
84122;BME280;74217;51.106;17.084;2024-01-15T00:46:47;98306.59;;;1.60;68.46
84122;BME280;74217;51.106;17.084;2024-01-15T00:49:35;98289.84;;;1.47;68.65
84122;BME280;74217;51.106;17.084;2024-01-15T00:52:22;98278.13;;;1.37;70.18
84122;BME280;74217;51.106;17.084;2024-01-15T00:55:09;98279.84;;;1.38;69.39
84122;BME280;74217;51.106;17.084;2024-01-15T00:57:55;98270.25;;;1.40;69.20
84122;BME280;74217;51.106;17.084;2024-01-15T01:00:45;98281.88;;;1.51;67.75
84122;BME280;74217;51.106;17.084;2024-01-15T01:03:31;98290.94;;;1.41;67.59
84122;BME280;74217;51.106;17.084;2024-01-15T01:06:19;98276.34;;;1.39;68.98
84122;BME280;74217;51.106;17.084;2024-01-15T01:09:05;98275.16;;;1.47;67.66
84122;BME280;74217;51.106;17.084;2024-01-15T01:11:55;98281.16;;;1.48;66.82
84122;BME280;74217;51.106;17.084;2024-01-15T01:14:42;98270.22;;;1.41;66.88
84122;BME280;74217;51.106;17.084;2024-01-15T01:17:31;98270.75;;;1.49;67.26
84122;BME280;74217;51.106;17.084;2024-01-15T01:20:18;98278.66;;;1.46;67.67
84122;BME280;74217;51.106;17.084;2024-01-15T01:23:06;98252.50;;;1.31;68.06
84122;BME280;74217;51.106;17.084;2024-01-15T01:25:53;98259.59;;;1.47;66.82
84122;BME280;74217;51.106;17.084;2024-01-15T01:28:40;98251.41;;;1.36;67.26
84122;BME280;74217;51.106;17.084;2024-01-15T01:31:26;98254.03;;;1.35;67.32
84122;BME280;74217;51.106;17.084;2024-01-15T01:34:16;98257.78;;;1.28;67.42
84122;BME280;74217;51.106;17.084;2024-01-15T01:37:03;98269.28;;;1.21;67.84
84122;BME280;74217;51.106;17.084;2024-01-15T01:39:50;98264.53;;;1.32;67.55
84122;BME280;74217;51.106;17.084;2024-01-15T01:42:37;98258.63;;;1.28;67.34
84122;BME280;74217;51.106;17.084;2024-01-15T01:45:25;98242.91;;;1.33;67.76
84122;BME280;74217;51.106;17.084;2024-01-15T01:48:12;98246.56;;;1.49;66.68
84122;BME280;74217;51.106;17.084;2024-01-15T01:51:02;98242.00;;;1.34;66.98
84122;BME280;74217;51.106;17.084;2024-01-15T01:53:50;98239.84;;;1.45;67.53
84122;BME280;74217;51.106;17.084;2024-01-15T01:56:38;98216.59;;;1.22;67.23
84122;BME280;74217;51.106;17.084;2024-01-15T01:59:26;98239.47;;;1.32;66.58
84122;BME280;74217;51.106;17.084;2024-01-15T02:02:14;98228.03;;;1.38;66.96
84122;BME280;74217;51.106;17.084;2024-01-15T02:05:03;98236.34;;;1.46;66.98
84122;BME280;74217;51.106;17.084;2024-01-15T02:07:52;98239.78;;;1.46;67.04
84122;BME280;74217;51.106;17.084;2024-01-15T02:10:39;98236.19;;;1.49;67.65
84122;BME280;74217;51.106;17.084;2024-01-15T02:13:28;98224.78;;;1.11;69.79
84122;BME280;74217;51.106;17.084;2024-01-15T02:16:15;98247.66;;;1.22;70.17
84122;BME280;74217;51.106;17.084;2024-01-15T02:19:05;98234.16;;;1.14;71.04
84122;BME280;74217;51.106;17.084;2024-01-15T02:21:51;98247.44;;;1.05;73.95
84122;BME280;74217;51.106;17.084;2024-01-15T02:24:40;98248.50;;;1.01;74.51
84122;BME280;74217;51.106;17.084;2024-01-15T02:27:26;98235.47;;;1.02;74.74
84122;BME280;74217;51.106;17.084;2024-01-15T02:30:15;98225.97;;;1.03;75.10
84122;BME280;74217;51.106;17.084;2024-01-15T02:33:02;98201.03;;;1.00;74.31
84122;BME280;74217;51.106;17.084;2024-01-15T02:35:51;98199.59;;;1.15;73.55
84122;BME280;74217;51.106;17.084;2024-01-15T02:38:38;98190.34;;;1.09;73.10
84122;BME280;74217;51.106;17.084;2024-01-15T02:41:28;98201.28;;;1.16;73.21
84122;BME280;74217;51.106;17.084;2024-01-15T02:44:14;98190.69;;;1.22;72.53
84122;BME280;74217;51.106;17.084;2024-01-15T02:47:04;98189.66;;;1.26;71.99
84122;BME280;74217;51.106;17.084;2024-01-15T02:49:51;98191.28;;;1.28;71.50
84122;BME280;74217;51.106;17.084;2024-01-15T02:52:38;98188.28;;;1.39;70.90
84122;BME280;74217;51.106;17.084;2024-01-15T02:55:25;98194.53;;;1.12;73.08
84122;BME280;74217;51.106;17.084;2024-01-15T02:58:16;98173.03;;;1.10;74.49
84122;BME280;74217;51.106;17.084;2024-01-15T03:01:03;98181.53;;;0.92;74.12
84122;BME280;74217;51.106;17.084;2024-01-15T03:03:50;98178.69;;;0.98;73.09
84122;BME280;74217;51.106;17.084;2024-01-15T03:06:37;98173.06;;;0.87;74.10
84122;BME280;74217;51.106;17.084;2024-01-15T03:09:24;98165.66;;;1.01;73.40
84122;BME280;74217;51.106;17.084;2024-01-15T03:12:11;98165.22;;;0.90;73.75
84122;BME280;74217;51.106;17.084;2024-01-15T03:15:01;98169.38;;;0.94;73.78
84122;BME280;74217;51.106;17.084;2024-01-15T03:17:48;98166.94;;;1.11;72.26
84122;BME280;74217;51.106;17.084;2024-01-15T03:20:35;98164.75;;;1.02;72.61
84122;BME280;74217;51.106;17.084;2024-01-15T03:23:21;98161.78;;;1.11;70.89
84122;BME280;74217;51.106;17.084;2024-01-15T03:26:10;98136.50;;;0.96;72.14
84122;BME280;74217;51.106;17.084;2024-01-15T03:28:58;98143.72;;;1.09;71.59
84122;BME280;74217;51.106;17.084;2024-01-15T03:31:47;98144.09;;;1.00;71.53
84122;BME280;74217;51.106;17.084;2024-01-15T03:34:34;98155.53;;;1.16;71.55
84122;BME280;74217;51.106;17.084;2024-01-15T03:37:21;98147.19;;;1.08;71.53
84122;BME280;74217;51.106;17.084;2024-01-15T03:40:08;98148.72;;;0.92;71.46
84122;BME280;74217;51.106;17.084;2024-01-15T03:42:57;98158.66;;;1.03;71.16
84122;BME280;74217;51.106;17.084;2024-01-15T03:45:44;98155.69;;;1.12;70.57
84122;BME280;74217;51.106;17.084;2024-01-15T03:48:34;98133.47;;;0.85;71.63
84122;BME280;74217;51.106;17.084;2024-01-15T03:51:21;98154.72;;;0.93;73.07
84122;BME280;74217;51.106;17.084;2024-01-15T03:54:09;98136.50;;;0.96;70.87
84122;BME280;74217;51.106;17.084;2024-01-15T03:56:55;98128.72;;;0.96;71.37
84122;BME280;74217;51.106;17.084;2024-01-15T03:59:44;98134.34;;;1.07;71.05
84122;BME280;74217;51.106;17.084;2024-01-15T04:02:33;98126.69;;;1.04;70.79
84122;BME280;74217;51.106;17.084;2024-01-15T04:05:22;98115.31;;;1.08;69.66
84122;BME280;74217;51.106;17.084;2024-01-15T04:08:09;98129.97;;;1.29;69.07
84122;BME280;74217;51.106;17.084;2024-01-15T04:10:57;98124.88;;;1.06;69.28
84122;BME280;74217;51.106;17.084;2024-01-15T04:13:44;98111.09;;;1.05;68.82
84122;BME280;74217;51.106;17.084;2024-01-15T04:16:31;98127.44;;;1.27;68.20
84122;BME280;74217;51.106;17.084;2024-01-15T04:19:19;98109.75;;;1.17;68.56
84122;BME280;74217;51.106;17.084;2024-01-15T04:22:08;98105.16;;;1.23;67.49
84122;BME280;74217;51.106;17.084;2024-01-15T04:24:55;98103.66;;;1.18;68.38
84122;BME280;74217;51.106;17.084;2024-01-15T04:27:42;98097.84;;;1.13;69.13
84122;BME280;74217;51.106;17.084;2024-01-15T04:30:29;98101.31;;;1.12;67.98
84122;BME280;74217;51.106;17.084;2024-01-15T04:33:16;98100.94;;;1.21;68.65
84122;BME280;74217;51.106;17.084;2024-01-15T04:36:03;98083.59;;;1.23;68.46
84122;BME280;74217;51.106;17.084;2024-01-15T04:38:52;98100.50;;;1.31;68.99
84122;BME280;74217;51.106;17.084;2024-01-15T04:41:39;98086.97;;;1.25;68.00
84122;BME280;74217;51.106;17.084;2024-01-15T04:44:29;98079.84;;;1.30;68.92
84122;BME280;74217;51.106;17.084;2024-01-15T04:47:16;98079.84;;;1.30;67.85
84122;BME280;74217;51.106;17.084;2024-01-15T04:50:04;98084.06;;;1.32;66.58
84122;BME280;74217;51.106;17.084;2024-01-15T04:52:52;98087.75;;;1.47;66.58
84122;BME280;74217;51.106;17.084;2024-01-15T04:55:39;98087.91;;;1.44;67.58
84122;BME280;74217;51.106;17.084;2024-01-15T04:58:26;98088.78;;;1.43;66.42
84122;BME280;74217;51.106;17.084;2024-01-15T05:01:15;98079.47;;;1.19;67.27
84122;BME280;74217;51.106;17.084;2024-01-15T05:04:03;98075.13;;;1.19;67.04
84122;BME280;74217;51.106;17.084;2024-01-15T05:06:53;98071.44;;;1.25;67.32
84122;BME280;74217;51.106;17.084;2024-01-15T05:09:40;98068.25;;;1.18;67.09
84122;BME280;74217;51.106;17.084;2024-01-15T05:12:29;98087.81;;;1.25;68.12
84122;BME280;74217;51.106;17.084;2024-01-15T05:15:16;98078.22;;;1.27;67.95
84122;BME280;74217;51.106;17.084;2024-01-15T05:18:04;98078.56;;;1.40;66.56
84122;BME280;74217;51.106;17.084;2024-01-15T05:20:50;98064.50;;;1.25;67.04
84122;BME280;74217;51.106;17.084;2024-01-15T05:23:40;98074.03;;;1.45;67.25
84122;BME280;74217;51.106;17.084;2024-01-15T05:26:27;98085.81;;;1.32;67.68
84122;BME280;74217;51.106;17.084;2024-01-15T05:29:16;98101.44;;;1.09;71.69
84122;BME280;74217;51.106;17.084;2024-01-15T05:32:02;98083.34;;;0.87;72.37
84122;BME280;74217;51.106;17.084;2024-01-15T05:34:51;98099.84;;;0.85;74.46
84122;BME280;74217;51.106;17.084;2024-01-15T05:37:40;98095.19;;;0.93;74.21
84122;BME280;74217;51.106;17.084;2024-01-15T05:40:27;98090.00;;;0.93;75.32
84122;BME280;74217;51.106;17.084;2024-01-15T05:43:14;98097.44;;;0.80;75.71
84122;BME280;74217;51.106;17.084;2024-01-15T05:46:01;98096.66;;;0.78;76.97
84122;BME280;74217;51.106;17.084;2024-01-15T05:48:49;98111.00;;;0.65;77.58
84122;BME280;74217;51.106;17.084;2024-01-15T05:51:38;98102.06;;;0.51;78.61
84122;BME280;74217;51.106;17.084;2024-01-15T05:54:25;98092.78;;;0.45;79.31
84122;BME280;74217;51.106;17.084;2024-01-15T05:57:13;98108.44;;;0.64;78.33
84122;BME280;74217;51.106;17.084;2024-01-15T06:00:00;98090.03;;;0.50;77.88
84122;BME280;74217;51.106;17.084;2024-01-15T06:02:47;98105.06;;;0.62;77.49
84122;BME280;74217;51.106;17.084;2024-01-15T06:05:33;98101.94;;;0.54;77.25
84122;BME280;74217;51.106;17.084;2024-01-15T06:08:20;98106.44;;;0.70;77.47
84122;BME280;74217;51.106;17.084;2024-01-15T06:11:07;98120.69;;;0.82;76.24
84122;BME280;74217;51.106;17.084;2024-01-15T06:13:54;98116.50;;;0.78;76.23
84122;BME280;74217;51.106;17.084;2024-01-15T06:16:41;98094.97;;;0.56;77.71
84122;BME280;74217;51.106;17.084;2024-01-15T06:19:30;98106.34;;;0.73;76.62
84122;BME280;74217;51.106;17.084;2024-01-15T06:22:17;98099.78;;;0.65;77.35
84122;BME280;74217;51.106;17.084;2024-01-15T06:25:07;98098.63;;;0.72;76.98
84122;BME280;74217;51.106;17.084;2024-01-15T06:27:53;98091.41;;;0.80;75.39
84122;BME280;74217;51.106;17.084;2024-01-15T06:30:43;98098.78;;;0.69;76.83
84122;BME280;74217;51.106;17.084;2024-01-15T06:33:30;98112.06;;;0.81;75.55
84122;BME280;74217;51.106;17.084;2024-01-15T06:36:17;98119.16;;;0.98;75.13
84122;BME280;74217;51.106;17.084;2024-01-15T06:39:04;98109.00;;;0.93;74.80
84122;BME280;74217;51.106;17.084;2024-01-15T06:41:51;98131.09;;;1.02;75.40
84122;BME280;74217;51.106;17.084;2024-01-15T06:44:38;98118.34;;;0.97;73.62
84122;BME280;74217;51.106;17.084;2024-01-15T06:47:26;98123.03;;;0.88;74.57
84122;BME280;74217;51.106;17.084;2024-01-15T06:50:12;98128.94;;;0.91;74.80
84122;BME280;74217;51.106;17.084;2024-01-15T06:53:02;98138.41;;;1.12;73.45
84122;BME280;74217;51.106;17.084;2024-01-15T06:55:48;98146.38;;;1.08;75.11
84122;BME280;74217;51.106;17.084;2024-01-15T06:58:38;98142.75;;;1.12;74.05
84122;BME280;74217;51.106;17.084;2024-01-15T07:01:24;98139.03;;;1.19;73.09
84122;BME280;74217;51.106;17.084;2024-01-15T07:04:10;98153.22;;;1.30;72.36
84122;BME280;74217;51.106;17.084;2024-01-15T07:06:57;98145.03;;;1.19;73.05
84122;BME280;74217;51.106;17.084;2024-01-15T07:09:44;98159.16;;;1.32;72.50
84122;BME280;74217;51.106;17.084;2024-01-15T07:12:31;98145.31;;;1.12;72.96
84122;BME280;74217;51.106;17.084;2024-01-15T07:15:18;98154.72;;;1.14;71.96
84122;BME280;74217;51.106;17.084;2024-01-15T07:18:06;98162.44;;;1.16;72.59
84122;BME280;74217;51.106;17.084;2024-01-15T07:20:56;98164.50;;;1.29;72.97
84122;BME280;74217;51.106;17.084;2024-01-15T07:23:42;98166.34;;;1.26;72.04
84122;BME280;74217;51.106;17.084;2024-01-15T07:26:34;98160.81;;;1.13;72.10
84122;BME280;74217;51.106;17.084;2024-01-15T07:29:21;98174.91;;;1.28;69.36
84122;BME280;74217;51.106;17.084;2024-01-15T07:32:08;98174.22;;;1.23;69.55
84122;BME280;74217;51.106;17.084;2024-01-15T07:34:56;98166.22;;;1.07;70.09
84122;BME280;74217;51.106;17.084;2024-01-15T07:37:43;98162.97;;;1.02;67.44
84122;BME280;74217;51.106;17.084;2024-01-15T07:40:30;98161.22;;;0.81;71.35
84122;BME280;74217;51.106;17.084;2024-01-15T07:43:19;98152.31;;;0.88;69.51
84122;BME280;74217;51.106;17.084;2024-01-15T07:46:08;98156.25;;;0.77;70.44
84122;BME280;74217;51.106;17.084;2024-01-15T07:48:57;98141.91;;;0.90;69.32
84122;BME280;74217;51.106;17.084;2024-01-15T07:51:44;98136.50;;;0.74;67.69
84122;BME280;74217;51.106;17.084;2024-01-15T07:54:32;98149.31;;;0.99;66.49
84122;BME280;74217;51.106;17.084;2024-01-15T07:57:19;98153.63;;;1.00;67.00
84122;BME280;74217;51.106;17.084;2024-01-15T08:00:10;98132.66;;;0.84;67.58
84122;BME280;74217;51.106;17.084;2024-01-15T08:02:58;98129.09;;;0.87;67.28
84122;BME280;74217;51.106;17.084;2024-01-15T08:05:46;98108.75;;;0.99;67.61
84122;BME280;74217;51.106;17.084;2024-01-15T08:08:33;98100.84;;;1.02;64.05
84122;BME280;74217;51.106;17.084;2024-01-15T08:11:20;98111.81;;;1.09;64.76
84122;BME280;74217;51.106;17.084;2024-01-15T08:14:08;98131.13;;;1.22;63.91
84122;BME280;74217;51.106;17.084;2024-01-15T08:16:55;98119.53;;;1.10;64.82
84122;BME280;74217;51.106;17.084;2024-01-15T08:19:42;98123.06;;;1.08;64.55
84122;BME280;74217;51.106;17.084;2024-01-15T08:22:31;98119.09;;;1.21;63.92
84122;BME280;74217;51.106;17.084;2024-01-15T08:25:18;98113.72;;;1.25;61.80
84122;BME280;74217;51.106;17.084;2024-01-15T08:28:05;98122.44;;;1.43;62.68
84122;BME280;74217;51.106;17.084;2024-01-15T08:30:52;98103.19;;;1.50;61.45
84122;BME280;74217;51.106;17.084;2024-01-15T08:33:41;98114.78;;;1.41;62.13
84122;BME280;74217;51.106;17.084;2024-01-15T08:36:28;98132.72;;;1.46;61.10
84122;BME280;74217;51.106;17.084;2024-01-15T08:39:20;98127.59;;;1.44;61.22
84122;BME280;74217;51.106;17.084;2024-01-15T08:42:07;98135.75;;;1.35;60.94
84122;BME280;74217;51.106;17.084;2024-01-15T08:45:07;98133.19;;;1.14;63.29
84122;BME280;74217;51.106;17.084;2024-01-15T08:47:55;98124.44;;;1.16;62.34
84122;BME280;74217;51.106;17.084;2024-01-15T08:50:41;98137.44;;;1.15;61.89
84122;BME280;74217;51.106;17.084;2024-01-15T08:53:29;98150.94;;;1.23;61.50
84122;BME280;74217;51.106;17.084;2024-01-15T08:56:15;98131.50;;;1.13;62.30
84122;BME280;74217;51.106;17.084;2024-01-15T08:59:02;98140.22;;;1.32;61.39
84122;BME280;74217;51.106;17.084;2024-01-15T09:01:50;98133.34;;;1.31;60.74
84122;BME280;74217;51.106;17.084;2024-01-15T09:04:37;98136.31;;;1.42;61.10
84122;BME280;74217;51.106;17.084;2024-01-15T09:07:23;98138.84;;;1.63;61.59
84122;BME280;74217;51.106;17.084;2024-01-15T09:10:12;98130.84;;;1.49;59.62
84122;BME280;74217;51.106;17.084;2024-01-15T09:12:59;98134.13;;;1.53;61.52
84122;BME280;74217;51.106;17.084;2024-01-15T09:15:47;98132.31;;;1.55;60.46
84122;BME280;74217;51.106;17.084;2024-01-15T09:18:34;98126.09;;;1.59;59.41
84122;BME280;74217;51.106;17.084;2024-01-15T09:21:22;98134.84;;;1.56;61.81
84122;BME280;74217;51.106;17.084;2024-01-15T09:24:09;98129.59;;;1.58;62.17
84122;BME280;74217;51.106;17.084;2024-01-15T09:26:56;98137.69;;;1.70;60.50
84122;BME280;74217;51.106;17.084;2024-01-15T09:29:44;98129.59;;;1.78;59.91
84122;BME280;74217;51.106;17.084;2024-01-15T09:32:32;98121.13;;;1.74;59.11
84122;BME280;74217;51.106;17.084;2024-01-15T09:35:19;98126.25;;;1.76;61.00
84122;BME280;74217;51.106;17.084;2024-01-15T09:38:06;98110.16;;;1.48;60.58
84122;BME280;74217;51.106;17.084;2024-01-15T09:40:53;98128.44;;;1.45;60.55
84122;BME280;74217;51.106;17.084;2024-01-15T09:43:40;98100.69;;;1.27;62.59
84122;BME280;74217;51.106;17.084;2024-01-15T09:46:28;98116.25;;;1.27;60.50
84122;BME280;74217;51.106;17.084;2024-01-15T09:49:15;98133.47;;;1.28;61.79
84122;BME280;74217;51.106;17.084;2024-01-15T09:52:03;98125.50;;;1.32;61.88
84122;BME280;74217;51.106;17.084;2024-01-15T09:54:50;98122.72;;;1.37;60.92
84122;BME280;74217;51.106;17.084;2024-01-15T09:57:39;98115.59;;;1.42;60.66
84122;BME280;74217;51.106;17.084;2024-01-15T10:00:26;98120.78;;;1.42;60.98
84122;BME280;74217;51.106;17.084;2024-01-15T10:03:14;98120.66;;;1.45;60.70
84122;BME280;74217;51.106;17.084;2024-01-15T10:06:01;98118.34;;;1.59;60.95
84122;BME280;74217;51.106;17.084;2024-01-15T10:08:50;98117.41;;;1.40;61.15
84122;BME280;74217;51.106;17.084;2024-01-15T10:11:37;98130.88;;;1.48;59.70
84122;BME280;74217;51.106;17.084;2024-01-15T10:14:24;98125.97;;;1.42;60.89
84122;BME280;74217;51.106;17.084;2024-01-15T10:17:17;98122.09;;;1.52;60.48
84122;BME280;74217;51.106;17.084;2024-01-15T10:20:08;98099.47;;;1.35;61.22
84122;BME280;74217;51.106;17.084;2024-01-15T10:22:55;98112.25;;;1.40;59.88
84122;BME280;74217;51.106;17.084;2024-01-15T10:25:42;98122.03;;;1.53;60.21
84122;BME280;74217;51.106;17.084;2024-01-15T10:28:30;98118.53;;;1.74;60.50
84122;BME280;74217;51.106;17.084;2024-01-15T10:31:18;98133.41;;;1.69;60.64
84122;BME280;74217;51.106;17.084;2024-01-15T10:34:12;98105.38;;;1.59;60.71
84122;BME280;74217;51.106;17.084;2024-01-15T10:36:59;98126.09;;;1.59;61.56
84122;BME280;74217;51.106;17.084;2024-01-15T10:39:46;98102.47;;;1.66;59.32
84122;BME280;74217;51.106;17.084;2024-01-15T10:42:33;98101.38;;;1.52;60.05
84122;BME280;74217;51.106;17.084;2024-01-15T10:45:21;98121.69;;;1.41;62.11
84122;BME280;74217;51.106;17.084;2024-01-15T10:48:08;98115.28;;;1.49;60.52
84122;BME280;74217;51.106;17.084;2024-01-15T10:50:55;98088.25;;;1.55;60.52
84122;BME280;74217;51.106;17.084;2024-01-15T10:53:42;98111.13;;;1.85;59.61
84122;BME280;74217;51.106;17.084;2024-01-15T10:56:30;98109.56;;;1.81;59.37
84122;BME280;74217;51.106;17.084;2024-01-15T10:59:20;98094.00;;;1.81;59.29
84122;BME280;74217;51.106;17.084;2024-01-15T11:02:08;98106.19;;;1.99;59.26
84122;BME280;74217;51.106;17.084;2024-01-15T11:04:55;98089.06;;;1.95;60.68
84122;BME280;74217;51.106;17.084;2024-01-15T11:07:42;98089.81;;;1.79;59.17
84122;BME280;74217;51.106;17.084;2024-01-15T11:10:42;98087.72;;;1.87;59.17
84122;BME280;74217;51.106;17.084;2024-01-15T11:16:19;98092.72;;;2.10;59.11
84122;BME280;74217;51.106;17.084;2024-01-15T11:19:06;98074.03;;;2.03;58.43
84122;BME280;74217;51.106;17.084;2024-01-15T11:21:55;98100.66;;;2.07;58.61
84122;BME280;74217;51.106;17.084;2024-01-15T11:24:43;98092.91;;;1.87;59.46
84122;BME280;74217;51.106;17.084;2024-01-15T11:27:43;98105.16;;;2.03;58.24
84122;BME280;74217;51.106;17.084;2024-01-15T11:30:30;98089.00;;;1.97;57.65
84122;BME280;74217;51.106;17.084;2024-01-15T11:33:33;98078.06;;;1.90;58.74
84122;BME280;74217;51.106;17.084;2024-01-15T11:36:21;98105.25;;;1.82;59.64
84122;BME280;74217;51.106;17.084;2024-01-15T11:42:15;98080.41;;;1.76;58.82
84122;BME280;74217;51.106;17.084;2024-01-15T11:45:02;98102.75;;;1.79;58.92
84122;BME280;74217;51.106;17.084;2024-01-15T11:47:59;98093.47;;;1.93;58.84
84122;BME280;74217;51.106;17.084;2024-01-15T11:50:53;98103.81;;;1.75;58.85
84122;BME280;74217;51.106;17.084;2024-01-15T11:53:47;98108.09;;;1.76;59.85
84122;BME280;74217;51.106;17.084;2024-01-15T11:56:35;98098.50;;;1.78;60.27
84122;BME280;74217;51.106;17.084;2024-01-15T11:59:22;98088.88;;;1.80;58.84
84122;BME280;74217;51.106;17.084;2024-01-15T12:02:10;98087.84;;;1.84;58.91
84122;BME280;74217;51.106;17.084;2024-01-15T12:04:59;98084.56;;;1.80;58.56
84122;BME280;74217;51.106;17.084;2024-01-15T12:07:48;98068.94;;;1.82;58.37
84122;BME280;74217;51.106;17.084;2024-01-15T12:10:36;98070.75;;;1.80;60.15
84122;BME280;74217;51.106;17.084;2024-01-15T12:13:24;98072.09;;;1.88;60.20
84122;BME280;74217;51.106;17.084;2024-01-15T12:16:11;98079.75;;;2.10;58.26
84122;BME280;74217;51.106;17.084;2024-01-15T12:18:58;98083.84;;;2.15;59.31
84122;BME280;74217;51.106;17.084;2024-01-15T12:21:46;98081.59;;;2.08;59.04
84122;BME280;74217;51.106;17.084;2024-01-15T12:24:33;98090.03;;;2.13;58.99
84122;BME280;74217;51.106;17.084;2024-01-15T12:27:20;98085.50;;;1.98;57.96
84122;BME280;74217;51.106;17.084;2024-01-15T12:30:11;98100.66;;;1.87;59.04
84122;BME280;74217;51.106;17.084;2024-01-15T12:33:00;98090.59;;;1.81;60.19
84122;BME280;74217;51.106;17.084;2024-01-15T12:35:47;98088.00;;;1.81;60.15
84122;BME280;74217;51.106;17.084;2024-01-15T12:38:32;98084.34;;;1.85;59.71
84122;BME280;74217;51.106;17.084;2024-01-15T12:41:17;98070.75;;;1.80;59.66
84122;BME280;74217;51.106;17.084;2024-01-15T12:44:05;98082.91;;;1.98;59.18
84122;BME280;74217;51.106;17.084;2024-01-15T12:46:50;98059.06;;;1.90;59.26
84122;BME280;74217;51.106;17.084;2024-01-15T12:49:38;98099.19;;;2.20;58.93
84122;BME280;74217;51.106;17.084;2024-01-15T12:52:29;98102.84;;;2.16;58.06
84122;BME280;74217;51.106;17.084;2024-01-15T12:55:17;98083.16;;;2.12;57.52
84122;BME280;74217;51.106;17.084;2024-01-15T12:58:03;98090.94;;;1.92;58.62
84122;BME280;74217;51.106;17.084;2024-01-15T13:00:51;98069.28;;;1.93;58.28
84122;BME280;74217;51.106;17.084;2024-01-15T13:03:38;98095.16;;;1.94;58.26
84122;BME280;74217;51.106;17.084;2024-01-15T13:06:25;98074.03;;;1.83;58.25
84122;BME280;74217;51.106;17.084;2024-01-15T13:09:12;98097.47;;;1.82;58.46
84122;BME280;74217;51.106;17.084;2024-01-15T13:11:59;98100.22;;;1.97;58.60
84122;BME280;74217;51.106;17.084;2024-01-15T13:14:46;98085.06;;;1.88;58.60
84122;BME280;74217;51.106;17.084;2024-01-15T13:17:34;98089.34;;;1.69;58.28
84122;BME280;74217;51.106;17.084;2024-01-15T13:20:23;98097.63;;;1.77;59.07
84122;BME280;74217;51.106;17.084;2024-01-15T13:23:10;98077.31;;;1.68;58.44
84122;BME280;74217;51.106;17.084;2024-01-15T13:25:58;98085.56;;;1.58;60.13
84122;BME280;74217;51.106;17.084;2024-01-15T13:28:45;98090.78;;;1.76;58.55
84122;BME280;74217;51.106;17.084;2024-01-15T13:31:33;98091.38;;;1.83;59.09
84122;BME280;74217;51.106;17.084;2024-01-15T13:34:20;98066.03;;;1.69;58.96
84122;BME280;74217;51.106;17.084;2024-01-15T13:37:09;98075.19;;;1.58;59.88
84122;BME280;74217;51.106;17.084;2024-01-15T13:39:56;98076.47;;;1.68;59.19
84122;BME280;74217;51.106;17.084;2024-01-15T13:42:43;98076.91;;;1.77;58.98
84122;BME280;74217;51.106;17.084;2024-01-15T13:45:30;98083.91;;;1.75;59.85
84122;BME280;74217;51.106;17.084;2024-01-15T13:48:20;98081.13;;;1.80;58.22
84122;BME280;74217;51.106;17.084;2024-01-15T13:51:08;98090.34;;;1.67;58.70
84122;BME280;74217;51.106;17.084;2024-01-15T13:53:57;98099.44;;;1.57;59.94
84122;BME280;74217;51.106;17.084;2024-01-15T13:56:45;98087.09;;;1.42;59.49
84122;BME280;74217;51.106;17.084;2024-01-15T13:59:33;98089.44;;;1.48;59.63
84122;BME280;74217;51.106;17.084;2024-01-15T14:02:20;98086.72;;;1.51;59.31
84122;BME280;74217;51.106;17.084;2024-01-15T14:05:12;98108.81;;;1.59;60.28
84122;BME280;74217;51.106;17.084;2024-01-15T14:08:01;98093.38;;;1.56;58.36
84122;BME280;74217;51.106;17.084;2024-01-15T14:10:48;98093.53;;;1.53;58.92
84122;BME280;74217;51.106;17.084;2024-01-15T14:13:36;98097.84;;;1.53;58.30
84122;BME280;74217;51.106;17.084;2024-01-15T14:16:22;98113.56;;;1.50;59.37
84122;BME280;74217;51.106;17.084;2024-01-15T14:19:11;98109.91;;;1.54;58.68
84122;BME280;74217;51.106;17.084;2024-01-15T14:21:56;98123.78;;;1.53;58.22
84122;BME280;74217;51.106;17.084;2024-01-15T14:24:45;98105.06;;;1.66;58.55
84122;BME280;74217;51.106;17.084;2024-01-15T14:27:31;98124.81;;;1.69;58.77
84122;BME280;74217;51.106;17.084;2024-01-15T14:30:21;98121.31;;;1.70;58.35
84122;BME280;74217;51.106;17.084;2024-01-15T14:33:06;98114.03;;;1.78;57.82
84122;BME280;74217;51.106;17.084;2024-01-15T14:35:55;98117.31;;;1.63;59.39
84122;BME280;74217;51.106;17.084;2024-01-15T14:38:40;98112.75;;;1.68;57.72
84122;BME280;74217;51.106;17.084;2024-01-15T14:41:29;98106.41;;;1.75;57.93
84122;BME280;74217;51.106;17.084;2024-01-15T14:44:14;98112.75;;;1.88;57.79
84122;BME280;74217;51.106;17.084;2024-01-15T14:47:04;98118.66;;;1.91;57.82
84122;BME280;74217;51.106;17.084;2024-01-15T14:49:48;98110.22;;;1.86;58.48
84122;BME280;74217;51.106;17.084;2024-01-15T14:52:37;98123.03;;;1.89;58.14
84122;BME280;74217;51.106;17.084;2024-01-15T14:55:26;98139.19;;;1.96;58.51